Buoy 41991

sailwx.info

Track history (hours):
 
Tides and Currents Weather Stations Pressure Air Temp Water Temp Dewpoint Dewpoint Depression Visibility Wind Speed Wind Dir Waves Ship Positions

Drifting buoy 41991

Last reported at 2017-Mar-27 21:15 UTC. Time now 2017-Mar-27 22:28 UTC.
Position N 25°19' W 064°03'.

Water temperature 23.6 ° C

Date/timePositionNaut miles runAvg speedWind from/ knotsBaromVisibWave heightAir tempDewpointWater temp
2017-Mar-27 21:15N 25°19' W 064°03'1 2.3 23.6
2017-Mar-27 21:01N 25°19' W 064°02'1 8.1 23.6
2017-Mar-27 20:57N 25°19' W 064°03'210.1 23.6
2017-Mar-27 20:45N 25°18' W 064°05'0 0.0 23.6
2017-Mar-27 19:06N 25°18' W 064°05'232.5 23.6
2017-Mar-27 19:03N 25°18' W 064°03'1 0.8 23.6
2017-Mar-27 17:27N 25°17' W 064°02'0 0.0 23.6
2017-Mar-27 15:52N 25°17' W 064°02'0 0.0 23.5
2017-Mar-27 15:06N 25°17' W 064°02'1 0.7 23.4
2017-Mar-27 14:16N 25°16' W 064°02'1 3.6 23.4
2017-Mar-27 14:07N 25°16' W 064°03'0 0.0 23.4
2017-Mar-27 13:28N 25°16' W 064°03'112.1 23.4
2017-Mar-27 13:24N 25°17' W 064°04'0 0.0 23.4
2017-Mar-27 13:04N 25°17' W 064°04'124.8 23.3
2017-Mar-27 13:01N 25°16' W 064°02'0 0.0 23.3
2017-Mar-27 12:32N 25°16' W 064°02'111.3 23.3
2017-Mar-27 12:25N 25°15' W 064°03'0 0.0
2017-Mar-27 11:55N 25°15' W 064°03'0 0.0 23.3
2017-Mar-27 11:48N 25°15' W 064°03'1 1.5 23.3
2017-Mar-27 11:26N 25°15' W 064°02'0 0.0 23.3
2017-Mar-27 11:19N 25°15' W 064°02'0 0.0 23.3
2017-Mar-27 11:17N 25°15' W 064°02'1 0.6 23.3
2017-Mar-27 10:19N 25°15' W 064°03'1 5.4 23.3
2017-Mar-27 10:13N 25°15' W 064°02'0 0.0 23.3
2017-Mar-27 10:06N 25°15' W 064°02'1 6.5 23.3
2017-Mar-27 10:01N 25°15' W 064°03'1 1.6 23.3
2017-Mar-27 09:38N 25°14' W 064°03'0 0.0 23.3
2017-Mar-27 09:29N 25°14' W 064°03'1 1.0 23.3
2017-Mar-27 08:39N 25°14' W 064°02'0 0.0 23.4
2017-Mar-27 08:33N 25°14' W 064°02'0 0.0 23.4
2017-Mar-27 07:49N 25°14' W 064°02'113.2 23.4
2017-Mar-27 07:43N 25°13' W 064°02'2 1.0 23.4
2017-Mar-27 06:05N 25°11' W 064°01'0 0.0 23.5
2017-Mar-27 02:42N 25°11' W 064°01'0 0.0 23.5
2017-Mar-27 01:50N 25°11' W 064°01'1 5.1 23.5
2017-Mar-27 01:43N 25°11' W 064°01'0 0.0 23.5
2017-Mar-27 01:02N 25°11' W 064°01'121.7 23.5
2017-Mar-27 00:59N 25°11' W 063°59'1 1.2 23.5
2017-Mar-27 00:32N 25°11' W 064°00'1 1.3 23.5
2017-Mar-27 00:07N 25°11' W 063°59'112.1 23.5
2017-Mar-27 00:03N 25°10' W 064°00'0 0.0 23.5
2017-Mar-26 23:26N 25°10' W 064°00'1 1.6 23.5
2017-Mar-26 23:06N 25°10' W 063°59'0 0.0 23.5
2017-Mar-26 22:52N 25°10' W 063°59'118.0 23.5
2017-Mar-26 22:50N 25°10' W 063°59'0 0.0 23.5
2017-Mar-26 21:48N 25°10' W 063°59'1 1.8 23.4
2017-Mar-26 21:30N 25°10' W 063°59'0 0.0 23.4
2017-Mar-26 21:12N 25°10' W 063°59'1 5.1 23.4
2017-Mar-26 20:58N 25°08' W 063°59'0 0.0 23.4
2017-Mar-26 19:20N 25°08' W 063°59'110.6 23.5
2017-Mar-26 19:13N 25°08' W 063°58'0 0.0 23.5
2017-Mar-26 17:40N 25°08' W 063°58'215.4 23.5
2017-Mar-26 17:33N 25°06' W 063°58'0 0.0 23.5
2017-Mar-26 15:24N 25°06' W 063°58'0 0.0 23.5
2017-Mar-26 14:36N 25°06' W 063°58'1 9.7 23.5
2017-Mar-26 14:31N 25°05' W 063°57'0 0.0 23.5
2017-Mar-26 13:52N 25°05' W 063°57'1 4.7 23.5
2017-Mar-26 13:45N 25°05' W 063°58'1 1.5 23.5
2017-Mar-26 13:12N 25°05' W 063°57'0 0.0 23.5
2017-Mar-26 12:56N 25°05' W 063°57'0 0.0 23.5
2017-Mar-26 12:48N 25°05' W 063°57'0 0.0 23.5
2017-Mar-26 12:12N 25°05' W 063°57'1 2.1 23.5
2017-Mar-26 11:36N 25°04' W 063°56'1 9.7 23.5
2017-Mar-26 11:31N 25°05' W 063°56'112.1 23.5
2017-Mar-26 11:27N 25°04' W 063°56'0 0.0 23.5
2017-Mar-26 10:52N 25°04' W 063°56'0 0.0 23.5
2017-Mar-26 10:48N 25°04' W 063°56'0 0.0 23.5
2017-Mar-26 10:41N 25°04' W 063°56'0 0.0 23.5
2017-Mar-26 10:32N 25°04' W 063°56'0 0.0 23.5
2017-Mar-26 09:53N 25°04' W 063°56'1 2.3 23.5
2017-Mar-26 09:37N 25°04' W 063°56'0 0.0 23.5
2017-Mar-26 09:06N 25°04' W 063°56'165.2 23.5
2017-Mar-26 09:05N 25°04' W 063°55'0 0.0 23.5
2017-Mar-26 08:47N 25°04' W 063°55'0 0.0 23.5
2017-Mar-26 08:02N 25°04' W 063°55'111.3 23.5
2017-Mar-26 07:55N 25°02' W 063°54'0 0.0 23.5
2017-Mar-26 06:21N 25°02' W 063°54'220.2 23.5
2017-Mar-26 06:15N 25°01' W 063°52'0 0.0 23.5
2017-Mar-26 03:03N 25°01' W 063°52'116.3 23.6
2017-Mar-26 03:01N 25°01' W 063°52'0 0.0 23.6
2017-Mar-26 02:05N 25°01' W 063°52'148.6 23.6
2017-Mar-26 02:04N 25°01' W 063°51'0 0.0 23.6
2017-Mar-26 01:23N 25°01' W 063°51'0 0.0 23.6
2017-Mar-26 01:17N 25°01' W 063°51'0 0.0 23.6
2017-Mar-26 00:29N 25°01' W 063°51'116.2 23.6
2017-Mar-26 00:26N 25°00' W 063°50'0 0.0 23.6
2017-Mar-25 23:48N 25°00' W 063°50'0 0.0 23.6
2017-Mar-25 23:41N 25°00' W 063°50'0 0.0 23.6
2017-Mar-25 23:38N 25°00' W 063°50'1 1.5 23.6
2017-Mar-25 23:05N 24°59' W 063°50'110.9 23.6
2017-Mar-25 23:02N 24°59' W 063°49'0 0.0 23.6
2017-Mar-25 22:12N 24°59' W 063°49'0 0.0 23.6
2017-Mar-25 22:03N 24°59' W 063°49'0 0.0 23.6
2017-Mar-25 21:27N 24°59' W 063°49'110.6 23.6
2017-Mar-25 21:20N 24°59' W 063°48'0 0.0 23.6
2017-Mar-25 20:30N 24°59' W 063°48'0 0.0 23.6
2017-Mar-25 19:31N 24°59' W 063°48'1 6.5 23.6
2017-Mar-25 19:26N 24°59' W 063°49'1 0.7 23.6
2017-Mar-25 17:52N 24°59' W 063°47'1 9.0 23.6
2017-Mar-25 17:48N 24°59' W 063°47'226.1 23.6
2017-Mar-25 17:44N 24°59' W 063°46'0 0.0 23.6
2017-Mar-25 15:43N 24°59' W 063°46'0 0.0
2017-Mar-25 14:59N 24°59' W 063°46'1 8.2 23.6
2017-Mar-25 14:51N 24°59' W 063°44'0 0.0 23.6
2017-Mar-25 14:07N 24°59' W 063°44'0 0.0 23.6
2017-Mar-25 14:03N 24°59' W 063°44'0 0.0 23.6
2017-Mar-25 13:15N 24°59' W 063°44'1 1.1 23.6
2017-Mar-25 12:32N 24°59' W 063°44'0 0.0 23.6
2017-Mar-25 11:48N 24°59' W 063°44'0 0.0 23.6
2017-Mar-25 11:42N 24°59' W 063°44'1 2.3 23.6
2017-Mar-25 11:21N 24°59' W 063°43'0 0.0 23.6
2017-Mar-25 10:52N 24°59' W 063°43'0 0.0 23.6
2017-Mar-25 10:06N 24°59' W 063°43'118.0 23.5
2017-Mar-25 10:04N 24°59' W 063°43'1 1.4 23.5
2017-Mar-25 09:41N 24°59' W 063°43'1 6.5 23.5
2017-Mar-25 09:36N 24°59' W 063°43'1 3.0 23.5
2017-Mar-25 09:14N 24°59' W 063°42'0 0.0 23.5
2017-Mar-25 08:14N 24°59' W 063°42'1 0.7 23.5
2017-Mar-25 06:34N 25°00' W 063°41'1 6.5 23.5
2017-Mar-25 06:29N 25°00' W 063°41'4 1.0 23.5
2017-Mar-25 02:31N 24°59' W 063°37'124.8 23.4
2017-Mar-25 02:28N 25°00' W 063°36'0 0.0 23.4
2017-Mar-25 01:45N 25°00' W 063°36'0 0.0 23.5
2017-Mar-25 01:38N 25°00' W 063°36'1 1.6 23.6
2017-Mar-25 00:51N 24°59' W 063°35'1 7.2 23.7
2017-Mar-25 00:46N 24°59' W 063°35'0 0.0 23.7
2017-Mar-25 00:07N 24°59' W 063°35'2 2.4 23.9
2017-Mar-24 23:12N 24°59' W 063°32'0 0.0 24.0
2017-Mar-24 22:32N 24°59' W 063°32'1 9.3 24.1
2017-Mar-24 22:25N 24°59' W 063°31'0 0.0
2017-Mar-24 21:37N 24°59' W 063°31'0 0.0
2017-Mar-24 21:35N 24°59' W 063°31'121.8 24.2
2017-Mar-24 21:32N 24°59' W 063°30'1 1.9 24.2
2017-Mar-24 20:52N 24°58' W 063°29'0 0.0 24.3
2017-Mar-24 19:41N 24°58' W 063°29'1 9.7 24.4
2017-Mar-24 19:36N 24°58' W 063°28'0 0.0 24.4
2017-Mar-24 18:03N 24°58' W 063°28'365.3 24.4
2017-Mar-24 18:00N 24°58' W 063°25'1 0.4 24.4
2017-Mar-24 15:14N 24°56' W 063°25'0 0.0 24.4
2017-Mar-24 14:33N 24°56' W 063°25'1 3.6 24.4
2017-Mar-24 14:24N 24°56' W 063°24'1 0.7 24.4
2017-Mar-24 13:34N 24°56' W 063°24'0 0.0 24.4
2017-Mar-24 12:51N 24°56' W 063°24'1 6.5 24.4
2017-Mar-24 12:46N 24°56' W 063°23'0 0.0 24.4
2017-Mar-24 11:59N 24°56' W 063°23'0 0.0 24.5
2017-Mar-24 11:52N 24°56' W 063°23'110.9 24.5
2017-Mar-24 11:49N 24°56' W 063°23'0 0.0 24.5
2017-Mar-24 11:22N 24°56' W 063°23'1 0.8 24.5
2017-Mar-24 10:19N 24°55' W 063°22'0 0.0 24.5
2017-Mar-24 10:10N 24°55' W 063°22'0 0.0 24.5
2017-Mar-24 10:07N 24°55' W 063°22'1 1.4 24.5
2017-Mar-24 09:44N 24°55' W 063°22'1 6.9 24.5
2017-Mar-24 09:37N 24°56' W 063°22'2 1.5 24.5
2017-Mar-24 08:32N 24°55' W 063°21'1 9.7 24.5
2017-Mar-24 08:27N 24°55' W 063°22'0 0.0 24.5
2017-Mar-24 08:23N 24°55' W 063°22'0 0.0 24.5
2017-Mar-24 08:20N 24°55' W 063°22'2 1.1 24.5
2017-Mar-24 06:45N 24°55' W 063°20'1 4.7 24.6
2017-Mar-24 06:38N 24°55' W 063°20'2 0.6 24.6
2017-Mar-24 02:52N 24°54' W 063°18'0 0.0 24.5
2017-Mar-24 02:48N 24°54' W 063°18'1 1.1 24.5
2017-Mar-24 02:05N 24°53' W 063°17'0 0.0 24.4
2017-Mar-24 02:00N 24°53' W 063°17'1 1.4 24.4
2017-Mar-24 01:07N 24°53' W 063°16'0 0.0 24.5
2017-Mar-24 00:26N 24°53' W 063°16'1 8.2 24.4
2017-Mar-24 00:18N 24°53' W 063°15'0 0.0 24.4
2017-Mar-23 23:32N 24°53' W 063°15'0 0.0 24.4
2017-Mar-23 23:28N 24°53' W 063°15'0 0.0 24.4
2017-Mar-23 23:05N 24°53' W 063°15'0 0.0 24.4
2017-Mar-23 22:58N 24°53' W 063°15'1 0.5 24.4
2017-Mar-23 21:50N 24°53' W 063°14'0 0.0 24.4
2017-Mar-23 21:43N 24°53' W 063°14'0 0.0 24.4
2017-Mar-23 21:24N 24°53' W 063°14'116.3 24.4
2017-Mar-23 21:22N 24°53' W 063°14'1 7.3 24.4
2017-Mar-23 21:13N 24°53' W 063°13'0 0.0 24.4
2017-Mar-23 19:53N 24°53' W 063°13'1 8.1 24.5
2017-Mar-23 19:47N 24°53' W 063°12'0 0.0 24.5
2017-Mar-23 18:15N 24°53' W 063°12'1 6.0 24.5
2017-Mar-23 18:09N 24°54' W 063°12'1 0.2 24.5
2017-Mar-23 15:34N 24°53' W 063°12'0 0.0 24.5
2017-Mar-23 14:51N 24°53' W 063°12'1 5.1 24.5
2017-Mar-23 14:44N 24°53' W 063°12'0 0.0 24.5
2017-Mar-23 14:00N 24°53' W 063°12'0 0.0 24.5
2017-Mar-23 13:58N 24°53' W 063°12'1 0.9 24.5
2017-Mar-23 13:06N 24°52' W 063°11'0 0.0 24.5
2017-Mar-23 12:11N 24°52' W 063°11'0 0.0 24.5
2017-Mar-23 12:07N 24°52' W 063°11'0 0.0 24.5
2017-Mar-23 11:46N 24°52' W 063°11'1 0.6 24.5
2017-Mar-23 10:42N 24°52' W 063°11'0 0.0 24.5
2017-Mar-23 10:36N 24°52' W 063°11'0 0.0 24.5
2017-Mar-23 10:31N 24°52' W 063°11'0 0.0 24.5
2017-Mar-23 10:26N 24°52' W 063°11'0 0.0 24.5
2017-Mar-23 10:06N 24°52' W 063°11'118.0 24.5
2017-Mar-23 10:02N 24°50' W 063°11'0 0.0 24.5
2017-Mar-23 09:05N 24°50' W 063°11'0 0.0 24.5
2017-Mar-23 09:02N 24°50' W 063°11'0 0.0 24.5
2017-Mar-23 08:58N 24°50' W 063°11'0 0.0 24.5
2017-Mar-23 08:33N 24°50' W 063°11'1 0.5 24.5
2017-Mar-23 06:52N 24°50' W 063°11'132.7 24.5
2017-Mar-23 06:50N 24°50' W 063°12'3 0.9 24.5
2017-Mar-23 03:07N 24°47' W 063°11'0 0.0 24.5
2017-Mar-23 02:24N 24°47' W 063°11'113.1 24.5
2017-Mar-23 02:19N 24°47' W 063°10'1 1.0 24.5
2017-Mar-23 01:32N 24°46' W 063°10'0 0.0 24.5
2017-Mar-23 01:27N 24°46' W 063°10'0 0.0 24.5
2017-Mar-23 00:44N 24°46' W 063°10'116.2 24.6
2017-Mar-23 00:41N 24°46' W 063°10'0 0.0 24.6
2017-Mar-22 23:51N 24°46' W 063°10'0 0.0 24.7
2017-Mar-22 23:40N 24°46' W 063°10'0 0.0 24.7
2017-Mar-22 23:35N 24°46' W 063°10'0 0.0 24.7
2017-Mar-22 23:31N 24°46' W 063°10'0 0.0 24.7
2017-Mar-22 23:28N 24°46' W 063°10'0 0.0 24.7
2017-Mar-22 23:24N 24°46' W 063°10'1 0.6 24.7
2017-Mar-22 22:02N 24°45' W 063°09'0 0.0 24.8
2017-Mar-22 21:58N 24°45' W 063°09'0 0.0 24.8
2017-Mar-22 21:53N 24°45' W 063°09'0 0.0 24.8
2017-Mar-22 21:48N 24°45' W 063°09'215.1 24.8
2017-Mar-22 21:39N 24°44' W 063°07'0 0.0 24.8
2017-Mar-22 20:06N 24°44' W 063°07'0 0.0 24.8
2017-Mar-22 20:04N 24°44' W 063°07'213.9 24.8
2017-Mar-22 19:57N 24°43' W 063°05'0 0.0 24.8
2017-Mar-22 18:26N 24°43' W 063°05'225.3 24.9
2017-Mar-22 18:21N 24°41' W 063°04'0 0.0 24.9
2017-Mar-22 15:53N 24°41' W 063°04'1 0.8 24.8
2017-Mar-22 15:06N 24°41' W 063°04'0 0.0 24.8
2017-Mar-22 14:17N 24°41' W 063°04'1 8.1 24.8
2017-Mar-22 14:11N 24°40' W 063°04'0 0.0 24.8
2017-Mar-22 13:34N 24°40' W 063°04'110.3 24.8
2017-Mar-22 13:27N 24°39' W 063°04'0 0.0 24.8
2017-Mar-22 12:35N 24°39' W 063°04'0 0.0 24.8
2017-Mar-22 12:24N 24°39' W 063°04'0 0.0 24.8
2017-Mar-22 12:21N 24°39' W 063°04'0 0.0 24.8
2017-Mar-22 12:10N 24°39' W 063°04'1 1.4 24.8
2017-Mar-22 11:13N 24°38' W 063°03'0 0.0 24.8
2017-Mar-22 10:41N 24°38' W 063°03'1 8.1 24.8
2017-Mar-22 10:35N 24°37' W 063°04'0 0.0 24.8
2017-Mar-22 09:37N 24°37' W 063°04'0 0.0 24.8
2017-Mar-22 09:33N 24°37' W 063°04'112.2 24.8
2017-Mar-22 09:29N 24°38' W 063°03'1 0.9 24.8
2017-Mar-22 08:48N 24°37' W 063°03'0 0.0 24.8
2017-Mar-22 08:45N 24°37' W 063°03'1 0.7 24.8
2017-Mar-22 07:07N 24°36' W 063°03'0 0.0 24.8
2017-Mar-22 07:05N 24°36' W 063°03'228.8 24.8
2017-Mar-22 07:00N 24°34' W 063°03'0 0.0 24.8
2017-Mar-22 02:46N 24°34' W 063°03'1 0.9 24.9
2017-Mar-22 01:53N 24°33' W 063°02'1 9.0 25.0
2017-Mar-22 01:49N 24°34' W 063°02'126.4 25.0
2017-Mar-22 01:46N 24°32' W 063°03'0 0.0 25.0
2017-Mar-22 01:07N 24°32' W 063°03'0 0.0 25.0
2017-Mar-22 01:01N 24°32' W 063°03'1 0.7 25.0
2017-Mar-22 00:11N 24°32' W 063°02'1 7.2 25.0
2017-Mar-22 00:06N 24°32' W 063°02'0 0.0 25.0
2017-Mar-22 00:02N 24°32' W 063°02'0 0.0 25.0
2017-Mar-21 23:52N 24°32' W 063°02'1 0.4 25.0
2017-Mar-21 22:26N 24°31' W 063°02'0 0.0 25.1
2017-Mar-21 22:06N 24°31' W 063°02'1 0.6 25.1
2017-Mar-21 20:44N 24°31' W 063°02'1 1.7 25.2
2017-Mar-21 20:16N 24°30' W 063°01'1 0.4 25.3
2017-Mar-21 18:36N 24°29' W 063°01'236.5 25.3
2017-Mar-21 18:32N 24°28' W 062°59'0 0.0 25.3
2017-Mar-21 15:29N 24°28' W 062°59'0 0.0 25.1
2017-Mar-21 14:37N 24°28' W 062°59'1 8.2 25.1
2017-Mar-21 14:33N 24°28' W 062°59'0 0.0 25.1
2017-Mar-21 13:52N 24°28' W 062°59'110.9 25.0
2017-Mar-21 13:49N 24°28' W 062°59'0 0.0 25.0
2017-Mar-21 13:42N 24°28' W 062°59'0 0.0 25.0
2017-Mar-21 12:59N 24°28' W 062°59'0 0.0
2017-Mar-21 12:57N 24°28' W 062°59'1 1.7 24.9
2017-Mar-21 12:36N 24°27' W 062°59'1 8.2 24.9
2017-Mar-21 12:32N 24°27' W 062°59'1 6.6 24.9
2017-Mar-21 12:27N 24°27' W 062°59'1 0.7 24.9
2017-Mar-21 11:42N 24°27' W 062°59'1 0.7 24.9
2017-Mar-21 10:52N 24°28' W 062°59'1 9.7 24.9
2017-Mar-21 10:47N 24°27' W 062°58'0 0.0 24.9
2017-Mar-21 10:06N 24°27' W 062°58'0 0.0 24.9
2017-Mar-21 10:01N 24°27' W 062°58'1 0.5 24.9
2017-Mar-21 08:53N 24°27' W 062°59'1 1.3 24.9
2017-Mar-21 08:26N 24°28' W 062°59'1 0.5 24.9
2017-Mar-21 07:15N 24°27' W 062°59'1 8.2 24.9
2017-Mar-21 07:11N 24°27' W 062°59'0 0.0 24.9
2017-Mar-21 02:15N 24°27' W 062°59'1 3.6 24.9
2017-Mar-21 02:06N 24°27' W 063°00'0 0.0 24.9
2017-Mar-21 01:27N 24°27' W 063°00'1 6.6 24.9
2017-Mar-21 01:22N 24°27' W 063°01'1 0.7 24.9
2017-Mar-21 00:33N 24°27' W 063°00'1 6.6 24.9
2017-Mar-21 00:28N 24°27' W 063°01'0 0.0 24.9
2017-Mar-21 00:03N 24°27' W 063°01'1 0.5 24.9
2017-Mar-20 22:52N 24°27' W 063°01'124.3 24.9
2017-Mar-20 22:50N 24°26' W 063°02'0 0.0 24.9
2017-Mar-20 22:29N 24°26' W 063°02'0 0.0 24.9
2017-Mar-20 22:22N 24°26' W 063°02'1 5.5 24.9
2017-Mar-20 22:16N 24°26' W 063°02'1 0.6 24.9
2017-Mar-20 21:17N 24°26' W 063°03'0 0.0 24.9
2017-Mar-20 20:52N 24°26' W 063°03'112.0 25.0
2017-Mar-20 20:49N 24°26' W 063°03'0 0.0 25.0
2017-Mar-20 20:27N 24°26' W 063°03'2 1.0 25.0
2017-Mar-20 18:49N 24°25' W 063°04'0 0.0 25.0
2017-Mar-20 18:44N 24°25' W 063°04'542.9 25.0
2017-Mar-20 18:37N 24°20' W 063°07'0 0.0
2017-Mar-20 17:06N 24°20' W 063°07'0 0.0 24.9
2017-Mar-20 15:01N 24°20' W 063°07'1 9.7 24.7
2017-Mar-20 14:56N 24°20' W 063°08'0 0.0 24.7
2017-Mar-20 14:15N 24°20' W 063°08'0 0.0 24.7
2017-Mar-20 14:11N 24°20' W 063°08'115.8 24.7
2017-Mar-20 14:06N 24°19' W 063°08'0 0.0 24.6
2017-Mar-20 13:18N 24°19' W 063°08'0 0.0 24.5
2017-Mar-20 12:44N 24°19' W 063°08'224.4 24.5
2017-Mar-20 12:40N 24°17' W 063°10'0 0.0 24.5
2017-Mar-20 11:22N 24°17' W 063°10'1 3.0 24.5
2017-Mar-20 11:06N 24°17' W 063°09'1 1.1 24.5
2017-Mar-20 10:37N 24°17' W 063°10'0 0.0
2017-Mar-20 10:35N 24°17' W 063°10'1 7.2 24.5
2017-Mar-20 10:30N 24°16' W 063°10'0 0.0 24.5
2017-Mar-20 09:45N 24°16' W 063°10'0 0.0 24.5
2017-Mar-20 09:06N 24°16' W 063°10'124.4 24.5
2017-Mar-20 09:04N 24°16' W 063°10'0 0.0 24.5
2017-Mar-20 08:52N 24°16' W 063°10'119.8
2017-Mar-20 08:48N 24°14' W 063°11'0 0.0 24.6
2017-Mar-20 07:33N 24°14' W 063°11'0 0.0 24.7
2017-Mar-20 07:28N 24°14' W 063°11'4 0.9 24.7
2017-Mar-20 02:36N 24°10' W 063°11'1 6.0 24.8
2017-Mar-20 02:30N 24°10' W 063°11'0 0.0 24.8
2017-Mar-20 01:49N 24°10' W 063°11'0 0.0 24.8
2017-Mar-20 01:42N 24°10' W 063°11'1 0.8 24.8
2017-Mar-20 00:54N 24°09' W 063°11'1 7.2 24.8
2017-Mar-20 00:49N 24°08' W 063°11'0 0.0 24.8
2017-Mar-20 00:17N 24°08' W 063°11'0 0.0 24.8
2017-Mar-20 00:13N 24°08' W 063°11'0 0.0 24.8
2017-Mar-20 00:06N 24°08' W 063°11'1 9.0 24.8
2017-Mar-20 00:02N 24°08' W 063°11'0 0.0 24.8
2017-Mar-19 23:28N 24°08' W 063°11'111.0 24.8
2017-Mar-19 23:25N 24°08' W 063°10'1 1.6 24.8
2017-Mar-19 23:02N 24°07' W 063°10'1 1.3 24.8
2017-Mar-19 22:37N 24°07' W 063°11'0 0.0 24.8
2017-Mar-19 22:33N 24°07' W 063°11'0 0.0 24.8
2017-Mar-19 22:30N 24°07' W 063°11'1 0.9 24.8
2017-Mar-19 21:50N 24°07' W 063°11'1 1.3 24.9
2017-Mar-19 21:22N 24°06' W 063°11'1 3.0 24.9
2017-Mar-19 21:11N 24°06' W 063°10'0 0.0 24.9
2017-Mar-19 20:51N 24°06' W 063°10'0 0.0 24.9
2017-Mar-19 20:39N 24°06' W 063°10'2 1.1 24.9
2017-Mar-19 18:59N 24°04' W 063°11'221.1 24.9
2017-Mar-19 18:52N 24°02' W 063°10'0 0.0 24.9
2017-Mar-19 17:17N 24°02' W 063°10'4 2.0 24.9
2017-Mar-19 15:22N 23°58' W 063°09'0 0.0 24.9
2017-Mar-19 15:18N 23°58' W 063°09'0 0.0 24.9
2017-Mar-19 14:33N 23°58' W 063°09'126.4 24.9
2017-Mar-19 14:30N 23°57' W 063°08'0 0.0 24.9
2017-Mar-19 13:40N 23°57' W 063°08'124.4 24.9
2017-Mar-19 13:38N 23°56' W 063°08'2 2.5 24.9
2017-Mar-19 12:52N 23°55' W 063°07'0 0.0 24.9
2017-Mar-19 12:48N 23°55' W 063°07'0 0.0 24.9
2017-Mar-19 11:48N 23°55' W 063°07'0 0.0 24.9
2017-Mar-19 11:21N 23°55' W 063°07'0 0.0 24.9
2017-Mar-19 11:14N 23°55' W 063°07'1 6.1 24.9
2017-Mar-19 11:06N 23°54' W 063°07'0 0.0 24.9
2017-Mar-19 10:06N 23°54' W 063°07'1 1.6 24.9
2017-Mar-19 09:36N 23°53' W 063°06'0 0.0 24.9
2017-Mar-19 09:30N 23°53' W 063°06'0 0.0 24.9
2017-Mar-19 09:27N 23°53' W 063°06'536.6 24.9
2017-Mar-19 09:19N 23°50' W 063°02'0 0.0 24.9
2017-Mar-19 09:16N 23°50' W 063°02'0 0.0 24.9
2017-Mar-19 07:40N 23°50' W 063°02'0 0.0 24.9
2017-Mar-19 07:33N 23°50' W 063°02'0 0.0 24.9
2017-Mar-19 05:53N 23°50' W 063°02'0 0.0 24.9
2017-Mar-19 02:53N 23°50' W 063°02'0 0.0 25.0
2017-Mar-19 02:51N 23°50' W 063°02'1 0.7 25.0
2017-Mar-19 02:06N 23°50' W 063°01'111.0 25.0
2017-Mar-19 02:03N 23°50' W 063°01'0 0.0 25.0
2017-Mar-19 01:16N 23°50' W 063°01'1 5.1 25.0
2017-Mar-19 01:09N 23°50' W 063°01'0 0.0 25.0
2017-Mar-19 00:30N 23°50' W 063°01'0 0.0 25.0
2017-Mar-19 00:26N 23°50' W 063°01'111.0 25.0
2017-Mar-19 00:23N 23°50' W 063°00'0 0.0 25.0
2017-Mar-19 00:00N 23°50' W 063°00'0 0.0 25.0
2017-Mar-18 23:52N 23°50' W 063°00'0 0.0 25.0
2017-Mar-18 23:33N 23°50' W 063°00'110.7 25.0
2017-Mar-18 23:26N 23°49' W 062°59'0 0.0 25.0
2017-Mar-18 22:46N 23°49' W 062°59'0 0.0 25.0
2017-Mar-18 22:43N 23°49' W 062°59'0 0.0 25.0
2017-Mar-18 22:21N 23°49' W 062°59'0 0.0 25.0
2017-Mar-18 22:18N 23°49' W 062°59'1 1.5 25.0
2017-Mar-18 21:46N 23°49' W 062°58'1 5.1 25.1
2017-Mar-18 21:33N 23°49' W 062°57'0 0.0
2017-Mar-18 21:05N 23°49' W 062°57'0 0.0 25.1
2017-Mar-18 20:51N 23°49' W 062°57'1 3.3 25.1
2017-Mar-18 20:36N 23°48' W 062°56'0 0.0 25.1
2017-Mar-18 19:11N 23°48' W 062°56'217.5 25.1
2017-Mar-18 19:05N 23°49' W 062°55'1 0.5 25.1
2017-Mar-18 17:31N 23°48' W 062°54'2 0.9 25.1
2017-Mar-18 15:40N 23°47' W 062°53'2 2.2 25.0
2017-Mar-18 14:52N 23°46' W 062°51'1 1.4 25.0
2017-Mar-18 14:00N 23°46' W 062°50'0 0.0 25.0
2017-Mar-18 13:14N 23°46' W 062°50'110.7 24.9
2017-Mar-18 13:07N 23°46' W 062°49'0 0.0 24.9
2017-Mar-18 13:05N 23°46' W 062°49'0 0.0 24.9
2017-Mar-18 12:19N 23°46' W 062°49'0 0.0 24.9
2017-Mar-18 12:12N 23°46' W 062°49'1 1.4 24.9
2017-Mar-18 11:36N 23°46' W 062°48'0 0.0 24.9
2017-Mar-18 11:31N 23°46' W 062°48'1 7.3 24.9
2017-Mar-18 11:22N 23°46' W 062°47'0 0.0 24.9
2017-Mar-18 10:35N 23°46' W 062°47'111.0 24.9
2017-Mar-18 10:32N 23°46' W 062°46'0 0.0 24.9
2017-Mar-18 09:58N 23°46' W 062°46'0 0.0 24.9
2017-Mar-18 09:52N 23°46' W 062°46'0 0.0 24.9
2017-Mar-18 09:44N 23°46' W 062°46'2 5.8 24.9
2017-Mar-18 09:27N 23°46' W 062°44'2 2.7 24.9
2017-Mar-18 08:50N 23°46' W 062°46'2 3.3 24.9
2017-Mar-18 08:20N 23°46' W 062°44'0 0.0 24.9
2017-Mar-18 07:53N 23°46' W 062°44'0 0.0 24.9
2017-Mar-18 07:51N 23°46' W 062°44'221.0 24.9
2017-Mar-18 07:46N 23°46' W 062°43'1 0.3 24.9
2017-Mar-18 06:06N 23°46' W 062°43'2 0.8 25.0
2017-Mar-18 03:11N 23°46' W 062°41'0 0.0 25.1
2017-Mar-18 02:28N 23°46' W 062°41'1 0.6 25.1
2017-Mar-18 01:37N 23°46' W 062°40'1 4.7 25.1
2017-Mar-18 01:30N 23°46' W 062°40'0 0.0 25.1
2017-Mar-18 00:49N 23°46' W 062°40'0 0.0 25.2
2017-Mar-18 00:43N 23°46' W 062°40'0 0.0 25.2
2017-Mar-18 00:34N 23°46' W 062°40'0 0.0 25.2
2017-Mar-17 23:51N 23°46' W 062°40'111.0 25.2
2017-Mar-17 23:48N 23°46' W 062°39'0 0.0 25.2
2017-Mar-17 22:58N 23°46' W 062°39'1 9.8 25.3
2017-Mar-17 22:53N 23°46' W 062°38'0 0.0 25.3
2017-Mar-17 22:49N 23°46' W 062°38'1 9.8 25.3
2017-Mar-17 22:44N 23°46' W 062°38'0 0.0 25.3
2017-Mar-17 22:06N 23°46' W 062°38'125.0 25.3
2017-Mar-17 22:03N 23°46' W 062°39'0 0.0 25.3
2017-Mar-17 21:18N 23°46' W 062°39'   25.4
Track history (hours):
 
Tides and Currents Weather Stations Pressure Air Temp Water Temp Dewpoint Dewpoint Depression Visibility Wind Speed Wind Dir Waves Ship Positions

Drifting buoy 41991

Last reported at 2017-Mar-27 21:15 UTC. Time now 2017-Mar-27 22:28 UTC.
Position N 25°19' W 064°03'.

Water temperature 23.6 ° C

Date/timePositionNaut miles runAvg speedWind from/ knotsBaromVisibWave heightAir tempDewpointWater temp
2017-Mar-27 21:15N 25°19' W 064°03'1 2.3 23.6
2017-Mar-27 21:01N 25°19' W 064°02'1 8.1 23.6
2017-Mar-27 20:57N 25°19' W 064°03'210.1 23.6
2017-Mar-27 20:45N 25°18' W 064°05'0 0.0 23.6
2017-Mar-27 19:06N 25°18' W 064°05'232.5 23.6
2017-Mar-27 19:03N 25°18' W 064°03'1 0.8 23.6
2017-Mar-27 17:27N 25°17' W 064°02'0 0.0 23.6
2017-Mar-27 15:52N 25°17' W 064°02'0 0.0 23.5
2017-Mar-27 15:06N 25°17' W 064°02'1 0.7 23.4
2017-Mar-27 14:16N 25°16' W 064°02'1 3.6 23.4
2017-Mar-27 14:07N 25°16' W 064°03'0 0.0 23.4
2017-Mar-27 13:28N 25°16' W 064°03'112.1 23.4
2017-Mar-27 13:24N 25°17' W 064°04'0 0.0 23.4
2017-Mar-27 13:04N 25°17' W 064°04'124.8 23.3
2017-Mar-27 13:01N 25°16' W 064°02'0 0.0 23.3
2017-Mar-27 12:32N 25°16' W 064°02'111.3 23.3
2017-Mar-27 12:25N 25°15' W 064°03'0 0.0
2017-Mar-27 11:55N 25°15' W 064°03'0 0.0 23.3
2017-Mar-27 11:48N 25°15' W 064°03'1 1.5 23.3
2017-Mar-27 11:26N 25°15' W 064°02'0 0.0 23.3
2017-Mar-27 11:19N 25°15' W 064°02'0 0.0 23.3
2017-Mar-27 11:17N 25°15' W 064°02'1 0.6 23.3
2017-Mar-27 10:19N 25°15' W 064°03'1 5.4 23.3
2017-Mar-27 10:13N 25°15' W 064°02'0 0.0 23.3
2017-Mar-27 10:06N 25°15' W 064°02'1 6.5 23.3
2017-Mar-27 10:01N 25°15' W 064°03'1 1.6 23.3
2017-Mar-27 09:38N 25°14' W 064°03'0 0.0 23.3
2017-Mar-27 09:29N 25°14' W 064°03'1 1.0 23.3
2017-Mar-27 08:39N 25°14' W 064°02'0 0.0 23.4
2017-Mar-27 08:33N 25°14' W 064°02'0 0.0 23.4
2017-Mar-27 07:49N 25°14' W 064°02'113.2 23.4
2017-Mar-27 07:43N 25°13' W 064°02'2 1.0 23.4
2017-Mar-27 06:05N 25°11' W 064°01'0 0.0 23.5
2017-Mar-27 02:42N 25°11' W 064°01'0 0.0 23.5
2017-Mar-27 01:50N 25°11' W 064°01'1 5.1 23.5
2017-Mar-27 01:43N 25°11' W 064°01'0 0.0 23.5
2017-Mar-27 01:02N 25°11' W 064°01'121.7 23.5
2017-Mar-27 00:59N 25°11' W 063°59'1 1.2 23.5
2017-Mar-27 00:32N 25°11' W 064°00'1 1.3 23.5
2017-Mar-27 00:07N 25°11' W 063°59'112.1 23.5
2017-Mar-27 00:03N 25°10' W 064°00'0 0.0 23.5
2017-Mar-26 23:26N 25°10' W 064°00'1 1.6 23.5
2017-Mar-26 23:06N 25°10' W 063°59'0 0.0 23.5
2017-Mar-26 22:52N 25°10' W 063°59'118.0 23.5
2017-Mar-26 22:50N 25°10' W 063°59'0 0.0 23.5
2017-Mar-26 21:48N 25°10' W 063°59'1 1.8 23.4
2017-Mar-26 21:30N 25°10' W 063°59'0 0.0 23.4
2017-Mar-26 21:12N 25°10' W 063°59'1 5.1 23.4
2017-Mar-26 20:58N 25°08' W 063°59'0 0.0 23.4
2017-Mar-26 19:20N 25°08' W 063°59'110.6 23.5
2017-Mar-26 19:13N 25°08' W 063°58'0 0.0 23.5
2017-Mar-26 17:40N 25°08' W 063°58'215.4 23.5
2017-Mar-26 17:33N 25°06' W 063°58'0 0.0 23.5
2017-Mar-26 15:24N 25°06' W 063°58'0 0.0 23.5
2017-Mar-26 14:36N 25°06' W 063°58'1 9.7 23.5
2017-Mar-26 14:31N 25°05' W 063°57'0 0.0 23.5
2017-Mar-26 13:52N 25°05' W 063°57'1 4.7 23.5
2017-Mar-26 13:45N 25°05' W 063°58'1 1.5 23.5
2017-Mar-26 13:12N 25°05' W 063°57'0 0.0 23.5
2017-Mar-26 12:56N 25°05' W 063°57'0 0.0 23.5
2017-Mar-26 12:48N 25°05' W 063°57'0 0.0 23.5
2017-Mar-26 12:12N 25°05' W 063°57'1 2.1 23.5
2017-Mar-26 11:36N 25°04' W 063°56'1 9.7 23.5
2017-Mar-26 11:31N 25°05' W 063°56'112.1 23.5
2017-Mar-26 11:27N 25°04' W 063°56'0 0.0 23.5
2017-Mar-26 10:52N 25°04' W 063°56'0 0.0 23.5
2017-Mar-26 10:48N 25°04' W 063°56'0 0.0 23.5
2017-Mar-26 10:41N 25°04' W 063°56'0 0.0 23.5
2017-Mar-26 10:32N 25°04' W 063°56'0 0.0 23.5
2017-Mar-26 09:53N 25°04' W 063°56'1 2.3 23.5
2017-Mar-26 09:37N 25°04' W 063°56'0 0.0 23.5
2017-Mar-26 09:06N 25°04' W 063°56'165.2 23.5
2017-Mar-26 09:05N 25°04' W 063°55'0 0.0 23.5
2017-Mar-26 08:47N 25°04' W 063°55'0 0.0 23.5
2017-Mar-26 08:02N 25°04' W 063°55'111.3 23.5
2017-Mar-26 07:55N 25°02' W 063°54'0 0.0 23.5
2017-Mar-26 06:21N 25°02' W 063°54'220.2 23.5
2017-Mar-26 06:15N 25°01' W 063°52'0 0.0 23.5
2017-Mar-26 03:03N 25°01' W 063°52'116.3 23.6
2017-Mar-26 03:01N 25°01' W 063°52'0 0.0 23.6
2017-Mar-26 02:05N 25°01' W 063°52'148.6 23.6
2017-Mar-26 02:04N 25°01' W 063°51'0 0.0 23.6
2017-Mar-26 01:23N 25°01' W 063°51'0 0.0 23.6
2017-Mar-26 01:17N 25°01' W 063°51'0 0.0 23.6
2017-Mar-26 00:29N 25°01' W 063°51'116.2 23.6
2017-Mar-26 00:26N 25°00' W 063°50'0 0.0 23.6
2017-Mar-25 23:48N 25°00' W 063°50'0 0.0 23.6
2017-Mar-25 23:41N 25°00' W 063°50'0 0.0 23.6
2017-Mar-25 23:38N 25°00' W 063°50'1 1.5 23.6
2017-Mar-25 23:05N 24°59' W 063°50'110.9 23.6
2017-Mar-25 23:02N 24°59' W 063°49'0 0.0 23.6
2017-Mar-25 22:12N 24°59' W 063°49'0 0.0 23.6
2017-Mar-25 22:03N 24°59' W 063°49'0 0.0 23.6
2017-Mar-25 21:27N 24°59' W 063°49'110.6 23.6
2017-Mar-25 21:20N 24°59' W 063°48'0 0.0 23.6
2017-Mar-25 20:30N 24°59' W 063°48'0 0.0 23.6
2017-Mar-25 19:31N 24°59' W 063°48'1 6.5 23.6
2017-Mar-25 19:26N 24°59' W 063°49'1 0.7 23.6
2017-Mar-25 17:52N 24°59' W 063°47'1 9.0 23.6
2017-Mar-25 17:48N 24°59' W 063°47'226.1 23.6
2017-Mar-25 17:44N 24°59' W 063°46'0 0.0 23.6
2017-Mar-25 15:43N 24°59' W 063°46'0 0.0
2017-Mar-25 14:59N 24°59' W 063°46'1 8.2 23.6
2017-Mar-25 14:51N 24°59' W 063°44'0 0.0 23.6
2017-Mar-25 14:07N 24°59' W 063°44'0 0.0 23.6
2017-Mar-25 14:03N 24°59' W 063°44'0 0.0 23.6
2017-Mar-25 13:15N 24°59' W 063°44'1 1.1 23.6
2017-Mar-25 12:32N 24°59' W 063°44'0 0.0 23.6
2017-Mar-25 11:48N 24°59' W 063°44'0 0.0 23.6
2017-Mar-25 11:42N 24°59' W 063°44'1 2.3 23.6
2017-Mar-25 11:21N 24°59' W 063°43'0 0.0 23.6
2017-Mar-25 10:52N 24°59' W 063°43'0 0.0 23.6
2017-Mar-25 10:06N 24°59' W 063°43'118.0 23.5
2017-Mar-25 10:04N 24°59' W 063°43'1 1.4 23.5
2017-Mar-25 09:41N 24°59' W 063°43'1 6.5 23.5
2017-Mar-25 09:36N 24°59' W 063°43'1 3.0 23.5
2017-Mar-25 09:14N 24°59' W 063°42'0 0.0 23.5
2017-Mar-25 08:14N 24°59' W 063°42'1 0.7 23.5
2017-Mar-25 06:34N 25°00' W 063°41'1 6.5 23.5
2017-Mar-25 06:29N 25°00' W 063°41'4 1.0 23.5
2017-Mar-25 02:31N 24°59' W 063°37'124.8 23.4
2017-Mar-25 02:28N 25°00' W 063°36'0 0.0 23.4
2017-Mar-25 01:45N 25°00' W 063°36'0 0.0 23.5
2017-Mar-25 01:38N 25°00' W 063°36'1 1.6 23.6
2017-Mar-25 00:51N 24°59' W 063°35'1 7.2 23.7
2017-Mar-25 00:46N 24°59' W 063°35'0 0.0 23.7
2017-Mar-25 00:07N 24°59' W 063°35'2 2.4 23.9
2017-Mar-24 23:12N 24°59' W 063°32'0 0.0 24.0
2017-Mar-24 22:32N 24°59' W 063°32'1 9.3 24.1
2017-Mar-24 22:25N 24°59' W 063°31'0 0.0
2017-Mar-24 21:37N 24°59' W 063°31'0 0.0
2017-Mar-24 21:35N 24°59' W 063°31'121.8 24.2
2017-Mar-24 21:32N 24°59' W 063°30'1 1.9 24.2
2017-Mar-24 20:52N 24°58' W 063°29'0 0.0 24.3
2017-Mar-24 19:41N 24°58' W 063°29'1 9.7 24.4
2017-Mar-24 19:36N 24°58' W 063°28'0 0.0 24.4
2017-Mar-24 18:03N 24°58' W 063°28'365.3 24.4
2017-Mar-24 18:00N 24°58' W 063°25'1 0.4 24.4
2017-Mar-24 15:14N 24°56' W 063°25'0 0.0 24.4
2017-Mar-24 14:33N 24°56' W 063°25'1 3.6 24.4
2017-Mar-24 14:24N 24°56' W 063°24'1 0.7 24.4
2017-Mar-24 13:34N 24°56' W 063°24'0 0.0 24.4
2017-Mar-24 12:51N 24°56' W 063°24'1 6.5 24.4
2017-Mar-24 12:46N 24°56' W 063°23'0 0.0 24.4
2017-Mar-24 11:59N 24°56' W 063°23'0 0.0 24.5
2017-Mar-24 11:52N 24°56' W 063°23'110.9 24.5
2017-Mar-24 11:49N 24°56' W 063°23'0 0.0 24.5
2017-Mar-24 11:22N 24°56' W 063°23'1 0.8 24.5
2017-Mar-24 10:19N 24°55' W 063°22'0 0.0 24.5
2017-Mar-24 10:10N 24°55' W 063°22'0 0.0 24.5
2017-Mar-24 10:07N 24°55' W 063°22'1 1.4 24.5
2017-Mar-24 09:44N 24°55' W 063°22'1 6.9 24.5
2017-Mar-24 09:37N 24°56' W 063°22'2 1.5 24.5
2017-Mar-24 08:32N 24°55' W 063°21'1 9.7 24.5
2017-Mar-24 08:27N 24°55' W 063°22'0 0.0 24.5
2017-Mar-24 08:23N 24°55' W 063°22'0 0.0 24.5
2017-Mar-24 08:20N 24°55' W 063°22'2 1.1 24.5
2017-Mar-24 06:45N 24°55' W 063°20'1 4.7 24.6
2017-Mar-24 06:38N 24°55' W 063°20'2 0.6 24.6
2017-Mar-24 02:52N 24°54' W 063°18'0 0.0 24.5
2017-Mar-24 02:48N 24°54' W 063°18'1 1.1 24.5
2017-Mar-24 02:05N 24°53' W 063°17'0 0.0 24.4
2017-Mar-24 02:00N 24°53' W 063°17'1 1.4 24.4
2017-Mar-24 01:07N 24°53' W 063°16'0 0.0 24.5
2017-Mar-24 00:26N 24°53' W 063°16'1 8.2 24.4
2017-Mar-24 00:18N 24°53' W 063°15'0 0.0 24.4
2017-Mar-23 23:32N 24°53' W 063°15'0 0.0 24.4
2017-Mar-23 23:28N 24°53' W 063°15'0 0.0 24.4
2017-Mar-23 23:05N 24°53' W 063°15'0 0.0 24.4
2017-Mar-23 22:58N 24°53' W 063°15'1 0.5 24.4
2017-Mar-23 21:50N 24°53' W 063°14'0 0.0 24.4
2017-Mar-23 21:43N 24°53' W 063°14'0 0.0 24.4
2017-Mar-23 21:24N 24°53' W 063°14'116.3 24.4
2017-Mar-23 21:22N 24°53' W 063°14'1 7.3 24.4
2017-Mar-23 21:13N 24°53' W 063°13'0 0.0 24.4
2017-Mar-23 19:53N 24°53' W 063°13'1 8.1 24.5
2017-Mar-23 19:47N 24°53' W 063°12'0 0.0 24.5
2017-Mar-23 18:15N 24°53' W 063°12'1 6.0 24.5
2017-Mar-23 18:09N 24°54' W 063°12'1 0.2 24.5
2017-Mar-23 15:34N 24°53' W 063°12'0 0.0 24.5
2017-Mar-23 14:51N 24°53' W 063°12'1 5.1 24.5
2017-Mar-23 14:44N 24°53' W 063°12'0 0.0 24.5
2017-Mar-23 14:00N 24°53' W 063°12'0 0.0 24.5
2017-Mar-23 13:58N 24°53' W 063°12'1 0.9 24.5
2017-Mar-23 13:06N 24°52' W 063°11'0 0.0 24.5
2017-Mar-23 12:11N 24°52' W 063°11'0 0.0 24.5
2017-Mar-23 12:07N 24°52' W 063°11'0 0.0 24.5
2017-Mar-23 11:46N 24°52' W 063°11'1 0.6 24.5
2017-Mar-23 10:42N 24°52' W 063°11'0 0.0 24.5
2017-Mar-23 10:36N 24°52' W 063°11'0 0.0 24.5
2017-Mar-23 10:31N 24°52' W 063°11'0 0.0 24.5
2017-Mar-23 10:26N 24°52' W 063°11'0 0.0 24.5
2017-Mar-23 10:06N 24°52' W 063°11'118.0 24.5
2017-Mar-23 10:02N 24°50' W 063°11'0 0.0 24.5
2017-Mar-23 09:05N 24°50' W 063°11'0 0.0 24.5
2017-Mar-23 09:02N 24°50' W 063°11'0 0.0 24.5
2017-Mar-23 08:58N 24°50' W 063°11'0 0.0 24.5
2017-Mar-23 08:33N 24°50' W 063°11'1 0.5 24.5
2017-Mar-23 06:52N 24°50' W 063°11'132.7 24.5
2017-Mar-23 06:50N 24°50' W 063°12'3 0.9 24.5
2017-Mar-23 03:07N 24°47' W 063°11'0 0.0 24.5
2017-Mar-23 02:24N 24°47' W 063°11'113.1 24.5
2017-Mar-23 02:19N 24°47' W 063°10'1 1.0 24.5
2017-Mar-23 01:32N 24°46' W 063°10'0 0.0 24.5
2017-Mar-23 01:27N 24°46' W 063°10'0 0.0 24.5
2017-Mar-23 00:44N 24°46' W 063°10'116.2 24.6
2017-Mar-23 00:41N 24°46' W 063°10'0 0.0 24.6
2017-Mar-22 23:51N 24°46' W 063°10'0 0.0 24.7
2017-Mar-22 23:40N 24°46' W 063°10'0 0.0 24.7
2017-Mar-22 23:35N 24°46' W 063°10'0 0.0 24.7
2017-Mar-22 23:31N 24°46' W 063°10'0 0.0 24.7
2017-Mar-22 23:28N 24°46' W 063°10'0 0.0 24.7
2017-Mar-22 23:24N 24°46' W 063°10'1 0.6 24.7
2017-Mar-22 22:02N 24°45' W 063°09'0 0.0 24.8
2017-Mar-22 21:58N 24°45' W 063°09'0 0.0 24.8
2017-Mar-22 21:53N 24°45' W 063°09'0 0.0 24.8
2017-Mar-22 21:48N 24°45' W 063°09'215.1 24.8
2017-Mar-22 21:39N 24°44' W 063°07'0 0.0 24.8
2017-Mar-22 20:06N 24°44' W 063°07'0 0.0 24.8
2017-Mar-22 20:04N 24°44' W 063°07'213.9 24.8
2017-Mar-22 19:57N 24°43' W 063°05'0 0.0 24.8
2017-Mar-22 18:26N 24°43' W 063°05'225.3 24.9
2017-Mar-22 18:21N 24°41' W 063°04'0 0.0 24.9
2017-Mar-22 15:53N 24°41' W 063°04'1 0.8 24.8
2017-Mar-22 15:06N 24°41' W 063°04'0 0.0 24.8
2017-Mar-22 14:17N 24°41' W 063°04'1 8.1 24.8
2017-Mar-22 14:11N 24°40' W 063°04'0 0.0 24.8
2017-Mar-22 13:34N 24°40' W 063°04'110.3 24.8
2017-Mar-22 13:27N 24°39' W 063°04'0 0.0 24.8
2017-Mar-22 12:35N 24°39' W 063°04'0 0.0 24.8
2017-Mar-22 12:24N 24°39' W 063°04'0 0.0 24.8
2017-Mar-22 12:21N 24°39' W 063°04'0 0.0 24.8
2017-Mar-22 12:10N 24°39' W 063°04'1 1.4 24.8
2017-Mar-22 11:13N 24°38' W 063°03'0 0.0 24.8
2017-Mar-22 10:41N 24°38' W 063°03'1 8.1 24.8
2017-Mar-22 10:35N 24°37' W 063°04'0 0.0 24.8
2017-Mar-22 09:37N 24°37' W 063°04'0 0.0 24.8
2017-Mar-22 09:33N 24°37' W 063°04'112.2 24.8
2017-Mar-22 09:29N 24°38' W 063°03'1 0.9 24.8
2017-Mar-22 08:48N 24°37' W 063°03'0 0.0 24.8
2017-Mar-22 08:45N 24°37' W 063°03'1 0.7 24.8
2017-Mar-22 07:07N 24°36' W 063°03'0 0.0 24.8
2017-Mar-22 07:05N 24°36' W 063°03'228.8 24.8
2017-Mar-22 07:00N 24°34' W 063°03'0 0.0 24.8
2017-Mar-22 02:46N 24°34' W 063°03'1 0.9 24.9
2017-Mar-22 01:53N 24°33' W 063°02'1 9.0 25.0
2017-Mar-22 01:49N 24°34' W 063°02'126.4 25.0
2017-Mar-22 01:46N 24°32' W 063°03'0 0.0 25.0
2017-Mar-22 01:07N 24°32' W 063°03'0 0.0 25.0
2017-Mar-22 01:01N 24°32' W 063°03'1 0.7 25.0
2017-Mar-22 00:11N 24°32' W 063°02'1 7.2 25.0
2017-Mar-22 00:06N 24°32' W 063°02'0 0.0 25.0
2017-Mar-22 00:02N 24°32' W 063°02'0 0.0 25.0
2017-Mar-21 23:52N 24°32' W 063°02'1 0.4 25.0
2017-Mar-21 22:26N 24°31' W 063°02'0 0.0 25.1
2017-Mar-21 22:06N 24°31' W 063°02'1 0.6 25.1
2017-Mar-21 20:44N 24°31' W 063°02'1 1.7 25.2
2017-Mar-21 20:16N 24°30' W 063°01'1 0.4 25.3
2017-Mar-21 18:36N 24°29' W 063°01'236.5 25.3
2017-Mar-21 18:32N 24°28' W 062°59'0 0.0 25.3
2017-Mar-21 15:29N 24°28' W 062°59'0 0.0 25.1
2017-Mar-21 14:37N 24°28' W 062°59'1 8.2 25.1
2017-Mar-21 14:33N 24°28' W 062°59'0 0.0 25.1
2017-Mar-21 13:52N 24°28' W 062°59'110.9 25.0
2017-Mar-21 13:49N 24°28' W 062°59'0 0.0 25.0
2017-Mar-21 13:42N 24°28' W 062°59'0 0.0 25.0
2017-Mar-21 12:59N 24°28' W 062°59'0 0.0
2017-Mar-21 12:57N 24°28' W 062°59'1 1.7 24.9
2017-Mar-21 12:36N 24°27' W 062°59'1 8.2 24.9
2017-Mar-21 12:32N 24°27' W 062°59'1 6.6 24.9
2017-Mar-21 12:27N 24°27' W 062°59'1 0.7 24.9
2017-Mar-21 11:42N 24°27' W 062°59'1 0.7 24.9
2017-Mar-21 10:52N 24°28' W 062°59'1 9.7 24.9
2017-Mar-21 10:47N 24°27' W 062°58'0 0.0 24.9
2017-Mar-21 10:06N 24°27' W 062°58'0 0.0 24.9
2017-Mar-21 10:01N 24°27' W 062°58'1 0.5 24.9
2017-Mar-21 08:53N 24°27' W 062°59'1 1.3 24.9
2017-Mar-21 08:26N 24°28' W 062°59'1 0.5 24.9
2017-Mar-21 07:15N 24°27' W 062°59'1 8.2 24.9
2017-Mar-21 07:11N 24°27' W 062°59'0 0.0 24.9
2017-Mar-21 02:15N 24°27' W 062°59'1 3.6 24.9
2017-Mar-21 02:06N 24°27' W 063°00'0 0.0 24.9
2017-Mar-21 01:27N 24°27' W 063°00'1 6.6 24.9
2017-Mar-21 01:22N 24°27' W 063°01'1 0.7 24.9
2017-Mar-21 00:33N 24°27' W 063°00'1 6.6 24.9
2017-Mar-21 00:28N 24°27' W 063°01'0 0.0 24.9
2017-Mar-21 00:03N 24°27' W 063°01'1 0.5 24.9
2017-Mar-20 22:52N 24°27' W 063°01'124.3 24.9
2017-Mar-20 22:50N 24°26' W 063°02'0 0.0 24.9
2017-Mar-20 22:29N 24°26' W 063°02'0 0.0 24.9
2017-Mar-20 22:22N 24°26' W 063°02'1 5.5 24.9
2017-Mar-20 22:16N 24°26' W 063°02'1 0.6 24.9
2017-Mar-20 21:17N 24°26' W 063°03'0 0.0 24.9
2017-Mar-20 20:52N 24°26' W 063°03'112.0 25.0
2017-Mar-20 20:49N 24°26' W 063°03'0 0.0 25.0
2017-Mar-20 20:27N 24°26' W 063°03'2 1.0 25.0
2017-Mar-20 18:49N 24°25' W 063°04'0 0.0 25.0
2017-Mar-20 18:44N 24°25' W 063°04'542.9 25.0
2017-Mar-20 18:37N 24°20' W 063°07'0 0.0
2017-Mar-20 17:06N 24°20' W 063°07'0 0.0 24.9
2017-Mar-20 15:01N 24°20' W 063°07'1 9.7 24.7
2017-Mar-20 14:56N 24°20' W 063°08'0 0.0 24.7
2017-Mar-20 14:15N 24°20' W 063°08'0 0.0 24.7
2017-Mar-20 14:11N 24°20' W 063°08'115.8 24.7
2017-Mar-20 14:06N 24°19' W 063°08'0 0.0 24.6
2017-Mar-20 13:18N 24°19' W 063°08'0 0.0 24.5
2017-Mar-20 12:44N 24°19' W 063°08'224.4 24.5
2017-Mar-20 12:40N 24°17' W 063°10'0 0.0 24.5
2017-Mar-20 11:22N 24°17' W 063°10'1 3.0 24.5
2017-Mar-20 11:06N 24°17' W 063°09'1 1.1 24.5
2017-Mar-20 10:37N 24°17' W 063°10'0 0.0
2017-Mar-20 10:35N 24°17' W 063°10'1 7.2 24.5
2017-Mar-20 10:30N 24°16' W 063°10'0 0.0 24.5
2017-Mar-20 09:45N 24°16' W 063°10'0 0.0 24.5
2017-Mar-20 09:06N 24°16' W 063°10'124.4 24.5
2017-Mar-20 09:04N 24°16' W 063°10'0 0.0 24.5
2017-Mar-20 08:52N 24°16' W 063°10'119.8
2017-Mar-20 08:48N 24°14' W 063°11'0 0.0 24.6
2017-Mar-20 07:33N 24°14' W 063°11'0 0.0 24.7
2017-Mar-20 07:28N 24°14' W 063°11'4 0.9 24.7
2017-Mar-20 02:36N 24°10' W 063°11'1 6.0 24.8
2017-Mar-20 02:30N 24°10' W 063°11'0 0.0 24.8
2017-Mar-20 01:49N 24°10' W 063°11'0 0.0 24.8
2017-Mar-20 01:42N 24°10' W 063°11'1 0.8 24.8
2017-Mar-20 00:54N 24°09' W 063°11'1 7.2 24.8
2017-Mar-20 00:49N 24°08' W 063°11'0 0.0 24.8
2017-Mar-20 00:17N 24°08' W 063°11'0 0.0 24.8
2017-Mar-20 00:13N 24°08' W 063°11'0 0.0 24.8
2017-Mar-20 00:06N 24°08' W 063°11'1 9.0 24.8
2017-Mar-20 00:02N 24°08' W 063°11'0 0.0 24.8
2017-Mar-19 23:28N 24°08' W 063°11'111.0 24.8
2017-Mar-19 23:25N 24°08' W 063°10'1 1.6 24.8
2017-Mar-19 23:02N 24°07' W 063°10'1 1.3 24.8
2017-Mar-19 22:37N 24°07' W 063°11'0 0.0 24.8
2017-Mar-19 22:33N 24°07' W 063°11'0 0.0 24.8
2017-Mar-19 22:30N 24°07' W 063°11'1 0.9 24.8
2017-Mar-19 21:50N 24°07' W 063°11'1 1.3 24.9
2017-Mar-19 21:22N 24°06' W 063°11'1 3.0 24.9
2017-Mar-19 21:11N 24°06' W 063°10'0 0.0 24.9
2017-Mar-19 20:51N 24°06' W 063°10'0 0.0 24.9
2017-Mar-19 20:39N 24°06' W 063°10'2 1.1 24.9
2017-Mar-19 18:59N 24°04' W 063°11'221.1 24.9
2017-Mar-19 18:52N 24°02' W 063°10'0 0.0 24.9
2017-Mar-19 17:17N 24°02' W 063°10'4 2.0 24.9
2017-Mar-19 15:22N 23°58' W 063°09'0 0.0 24.9
2017-Mar-19 15:18N 23°58' W 063°09'0 0.0 24.9
2017-Mar-19 14:33N 23°58' W 063°09'126.4 24.9
2017-Mar-19 14:30N 23°57' W 063°08'0 0.0 24.9
2017-Mar-19 13:40N 23°57' W 063°08'124.4 24.9
2017-Mar-19 13:38N 23°56' W 063°08'2 2.5 24.9
2017-Mar-19 12:52N 23°55' W 063°07'0 0.0 24.9
2017-Mar-19 12:48N 23°55' W 063°07'0 0.0 24.9
2017-Mar-19 11:48N 23°55' W 063°07'0 0.0 24.9
2017-Mar-19 11:21N 23°55' W 063°07'0 0.0 24.9
2017-Mar-19 11:14N 23°55' W 063°07'1 6.1 24.9
2017-Mar-19 11:06N 23°54' W 063°07'0 0.0 24.9
2017-Mar-19 10:06N 23°54' W 063°07'1 1.6 24.9
2017-Mar-19 09:36N 23°53' W 063°06'0 0.0 24.9
2017-Mar-19 09:30N 23°53' W 063°06'0 0.0 24.9
2017-Mar-19 09:27N 23°53' W 063°06'536.6 24.9
2017-Mar-19 09:19N 23°50' W 063°02'0 0.0 24.9
2017-Mar-19 09:16N 23°50' W 063°02'0 0.0 24.9
2017-Mar-19 07:40N 23°50' W 063°02'0 0.0 24.9
2017-Mar-19 07:33N 23°50' W 063°02'0 0.0 24.9
2017-Mar-19 05:53N 23°50' W 063°02'0 0.0 24.9
2017-Mar-19 02:53N 23°50' W 063°02'0 0.0 25.0
2017-Mar-19 02:51N 23°50' W 063°02'1 0.7 25.0
2017-Mar-19 02:06N 23°50' W 063°01'111.0 25.0
2017-Mar-19 02:03N 23°50' W 063°01'0 0.0 25.0
2017-Mar-19 01:16N 23°50' W 063°01'1 5.1 25.0
2017-Mar-19 01:09N 23°50' W 063°01'0 0.0 25.0
2017-Mar-19 00:30N 23°50' W 063°01'0 0.0 25.0
2017-Mar-19 00:26N 23°50' W 063°01'111.0 25.0
2017-Mar-19 00:23N 23°50' W 063°00'0 0.0 25.0
2017-Mar-19 00:00N 23°50' W 063°00'0 0.0 25.0
2017-Mar-18 23:52N 23°50' W 063°00'0 0.0 25.0
2017-Mar-18 23:33N 23°50' W 063°00'110.7 25.0
2017-Mar-18 23:26N 23°49' W 062°59'0 0.0 25.0
2017-Mar-18 22:46N 23°49' W 062°59'0 0.0 25.0
2017-Mar-18 22:43N 23°49' W 062°59'0 0.0 25.0
2017-Mar-18 22:21N 23°49' W 062°59'0 0.0 25.0
2017-Mar-18 22:18N 23°49' W 062°59'1 1.5 25.0
2017-Mar-18 21:46N 23°49' W 062°58'1 5.1 25.1
2017-Mar-18 21:33N 23°49' W 062°57'0 0.0
2017-Mar-18 21:05N 23°49' W 062°57'0 0.0 25.1
2017-Mar-18 20:51N 23°49' W 062°57'1 3.3 25.1
2017-Mar-18 20:36N 23°48' W 062°56'0 0.0 25.1
2017-Mar-18 19:11N 23°48' W 062°56'217.5 25.1
2017-Mar-18 19:05N 23°49' W 062°55'1 0.5 25.1
2017-Mar-18 17:31N 23°48' W 062°54'2 0.9 25.1
2017-Mar-18 15:40N 23°47' W 062°53'2 2.2 25.0
2017-Mar-18 14:52N 23°46' W 062°51'1 1.4 25.0
2017-Mar-18 14:00N 23°46' W 062°50'0 0.0 25.0
2017-Mar-18 13:14N 23°46' W 062°50'110.7 24.9
2017-Mar-18 13:07N 23°46' W 062°49'0 0.0 24.9
2017-Mar-18 13:05N 23°46' W 062°49'0 0.0 24.9
2017-Mar-18 12:19N 23°46' W 062°49'0 0.0 24.9
2017-Mar-18 12:12N 23°46' W 062°49'1 1.4 24.9
2017-Mar-18 11:36N 23°46' W 062°48'0 0.0 24.9
2017-Mar-18 11:31N 23°46' W 062°48'1 7.3 24.9
2017-Mar-18 11:22N 23°46' W 062°47'0 0.0 24.9
2017-Mar-18 10:35N 23°46' W 062°47'111.0 24.9
2017-Mar-18 10:32N 23°46' W 062°46'0 0.0 24.9
2017-Mar-18 09:58N 23°46' W 062°46'0 0.0 24.9
2017-Mar-18 09:52N 23°46' W 062°46'0 0.0 24.9
2017-Mar-18 09:44N 23°46' W 062°46'2 5.8 24.9
2017-Mar-18 09:27N 23°46' W 062°44'2 2.7 24.9
2017-Mar-18 08:50N 23°46' W 062°46'2 3.3 24.9
2017-Mar-18 08:20N 23°46' W 062°44'0 0.0 24.9
2017-Mar-18 07:53N 23°46' W 062°44'0 0.0 24.9
2017-Mar-18 07:51N 23°46' W 062°44'221.0 24.9
2017-Mar-18 07:46N 23°46' W 062°43'1 0.3 24.9
2017-Mar-18 06:06N 23°46' W 062°43'2 0.8 25.0
2017-Mar-18 03:11N 23°46' W 062°41'0 0.0 25.1
2017-Mar-18 02:28N 23°46' W 062°41'1 0.6 25.1
2017-Mar-18 01:37N 23°46' W 062°40'1 4.7 25.1
2017-Mar-18 01:30N 23°46' W 062°40'0 0.0 25.1
2017-Mar-18 00:49N 23°46' W 062°40'0 0.0 25.2
2017-Mar-18 00:43N 23°46' W 062°40'0 0.0 25.2
2017-Mar-18 00:34N 23°46' W 062°40'0 0.0 25.2
2017-Mar-17 23:51N 23°46' W 062°40'111.0 25.2
2017-Mar-17 23:48N 23°46' W 062°39'0 0.0 25.2
2017-Mar-17 22:58N 23°46' W 062°39'1 9.8 25.3
2017-Mar-17 22:53N 23°46' W 062°38'0 0.0 25.3
2017-Mar-17 22:49N 23°46' W 062°38'1 9.8 25.3
2017-Mar-17 22:44N 23°46' W 062°38'0 0.0 25.3
2017-Mar-17 22:06N 23°46' W 062°38'125.0 25.3
2017-Mar-17 22:03N 23°46' W 062°39'0 0.0 25.3
2017-Mar-17 21:18N 23°46' W 062°39'   25.4

Dump ship's entire track history